Portada
METAR-TAF:

METAR-TAF

Aeroports :

Hohhot, Xina

latitud: 40-49N, longitud: 111-41E, altitud: 1065 m

Observació

L'informe es va fer fa 26 minuts, a les 02:00 UTC
Vent 2 kt amb direcció variable
Temperatura -6°C
Humitat 53%
Pressió 1029 hPa
Visibilitat 10 km o més
sense núvols per sota de 1500 mi sense presència de cumulonimbus.

METAR: ZBHH 010200Z VRB01MPS CAVOK M06/M14 Q1029 NOSIG

Hora: 10:26 (02:26 UTC)

Pronòstic

L'informe es va fer fa 5 hores i 26 minuts, a les 21:00 UTC
Pronòstic vàlid del 01 a les 00 UTC al 01 a les 24 UTC
Vent 8 kt del Sud-Oest
Visibilitat 10 km o més
sense núvols per sota de 1500 mi sense presència de cumulonimbus.

TAF: ZBHH 302100Z 0100/0124 23004MPS CAVOK TX00/0107Z TNM14/0122Z

Observacions i pronòstics meteorològics de més de 4000 aeroports (METAR i TAF).

Les estacions disponibles són els punts grocs i vermells al mapa.

Posi el ratolí al punt desitjat per veure el nom de l'estació.

Feu clic per veure les observacions i els pronòstics meteorològics.

Per canviar el mapa: feu clic els botons verds amb una creu de color negre per apropar; al botó verd amb un guió per allunyar la imatge; o en les fletxes verdes per a mapes adjacents.


METAR-TAF: